sensor_id;sensor_type;location;lat;lon;timestamp;P1;durP1;ratioP1;P2;durP2;ratioP2
52072;SDS011;38074;51.232;6.826;2023-03-23T00:04:08;2.78;;;0.75;;
52072;SDS011;38074;51.232;6.826;2023-03-23T00:11:28;1.08;;;0.50;;
52072;SDS011;38074;51.232;6.826;2023-03-23T00:18:45;1.10;;;0.50;;
52072;SDS011;38074;51.232;6.826;2023-03-23T00:26:07;1.40;;;0.57;;
52072;SDS011;38074;51.232;6.826;2023-03-23T00:33:26;1.60;;;0.47;;
52072;SDS011;38074;51.232;6.826;2023-03-23T00:40:43;1.05;;;0.60;;
52072;SDS011;38074;51.232;6.826;2023-03-23T00:47:59;3.33;;;0.60;;
52072;SDS011;38074;51.232;6.826;2023-03-23T00:55:16;1.33;;;0.43;;
52072;SDS011;38074;51.232;6.826;2023-03-23T01:02:32;0.97;;;0.50;;
52072;SDS011;38074;51.232;6.826;2023-03-23T01:09:47;0.77;;;0.33;;
52072;SDS011;38074;51.232;6.826;2023-03-23T01:17:03;1.45;;;0.32;;
52072;SDS011;38074;51.232;6.826;2023-03-23T01:24:19;0.70;;;0.40;;
52072;SDS011;38074;51.232;6.826;2023-03-23T01:31:34;1.57;;;0.40;;
52072;SDS011;38074;51.232;6.826;2023-03-23T01:38:51;1.35;;;0.80;;
52072;SDS011;38074;51.232;6.826;2023-03-23T01:46:08;1.52;;;0.40;;
52072;SDS011;38074;51.232;6.826;2023-03-23T01:53:24;2.60;;;0.85;;
52072;SDS011;38074;51.232;6.826;2023-03-23T02:00:44;1.77;;;0.40;;
52072;SDS011;38074;51.232;6.826;2023-03-23T02:08:00;1.15;;;0.50;;
52072;SDS011;38074;51.232;6.826;2023-03-23T02:15:17;1.15;;;0.50;;
52072;SDS011;38074;51.232;6.826;2023-03-23T02:23:07;0.70;;;0.20;;
52072;SDS011;38074;51.232;6.826;2023-03-23T02:30:42;1.08;;;0.40;;
52072;SDS011;38074;51.232;6.826;2023-03-23T02:38:08;0.73;;;0.40;;
52072;SDS011;38074;51.232;6.826;2023-03-23T02:45:32;1.23;;;0.50;;
52072;SDS011;38074;51.232;6.826;2023-03-23T02:52:50;0.90;;;0.30;;
52072;SDS011;38074;51.232;6.826;2023-03-23T03:07:30;1.95;;;0.52;;
52072;SDS011;38074;51.232;6.826;2023-03-23T03:14:55;0.98;;;0.40;;
52072;SDS011;38074;51.232;6.826;2023-03-23T03:22:20;1.67;;;0.40;;
52072;SDS011;38074;51.232;6.826;2023-03-23T03:29:38;1.63;;;0.50;;
52072;SDS011;38074;51.232;6.826;2023-03-23T03:36:56;1.02;;;0.47;;
52072;SDS011;38074;51.232;6.826;2023-03-23T03:44:13;1.02;;;0.43;;
52072;SDS011;38074;51.232;6.826;2023-03-23T03:51:30;1.50;;;0.40;;
52072;SDS011;38074;51.232;6.826;2023-03-23T03:58:46;0.85;;;0.30;;
52072;SDS011;38074;51.232;6.826;2023-03-23T04:06:03;0.80;;;0.30;;
52072;SDS011;38074;51.232;6.826;2023-03-23T04:13:19;1.42;;;0.47;;
52072;SDS011;38074;51.232;6.826;2023-03-23T04:20:35;0.80;;;0.40;;
52072;SDS011;38074;51.232;6.826;2023-03-23T04:27:52;0.70;;;0.30;;
52072;SDS011;38074;51.232;6.826;2023-03-23T04:35:09;1.30;;;0.50;;
52072;SDS011;38074;51.232;6.826;2023-03-23T04:42:27;1.27;;;0.45;;
52072;SDS011;38074;51.232;6.826;2023-03-23T04:49:44;1.85;;;0.30;;
52072;SDS011;38074;51.232;6.826;2023-03-23T04:56:59;1.00;;;0.40;;
52072;SDS011;38074;51.232;6.826;2023-03-23T05:04:15;0.83;;;0.30;;
52072;SDS011;38074;51.232;6.826;2023-03-23T05:11:31;1.23;;;0.35;;
52072;SDS011;38074;51.232;6.826;2023-03-23T05:18:46;0.70;;;0.30;;
52072;SDS011;38074;51.232;6.826;2023-03-23T05:26:03;0.50;;;0.30;;
52072;SDS011;38074;51.232;6.826;2023-03-23T05:33:19;1.50;;;0.37;;
52072;SDS011;38074;51.232;6.826;2023-03-23T05:40:35;1.08;;;0.30;;
52072;SDS011;38074;51.232;6.826;2023-03-23T05:47:51;1.00;;;0.45;;
52072;SDS011;38074;51.232;6.826;2023-03-23T05:55:07;2.13;;;0.70;;
52072;SDS011;38074;51.232;6.826;2023-03-23T06:02:24;1.90;;;0.57;;
52072;SDS011;38074;51.232;6.826;2023-03-23T06:09:43;1.92;;;0.60;;
52072;SDS011;38074;51.232;6.826;2023-03-23T06:16:58;1.25;;;0.47;;
52072;SDS011;38074;51.232;6.826;2023-03-23T06:24:14;1.40;;;0.70;;
52072;SDS011;38074;51.232;6.826;2023-03-23T06:31:30;10.85;;;2.38;;
52072;SDS011;38074;51.232;6.826;2023-03-23T06:38:48;5.32;;;1.35;;
52072;SDS011;38074;51.232;6.826;2023-03-23T06:46:04;5.57;;;0.73;;
52072;SDS011;38074;51.232;6.826;2023-03-23T06:53:20;5.35;;;0.90;;
52072;SDS011;38074;51.232;6.826;2023-03-23T07:00:35;3.47;;;0.77;;
52072;SDS011;38074;51.232;6.826;2023-03-23T07:07:51;2.65;;;0.63;;
52072;SDS011;38074;51.232;6.826;2023-03-23T07:15:07;3.83;;;0.80;;
52072;SDS011;38074;51.232;6.826;2023-03-23T07:22:25;3.33;;;0.60;;
52072;SDS011;38074;51.232;6.826;2023-03-23T07:29:41;2.37;;;0.83;;
52072;SDS011;38074;51.232;6.826;2023-03-23T07:36:57;3.50;;;0.60;;
52072;SDS011;38074;51.232;6.826;2023-03-23T07:44:13;2.30;;;0.43;;
52072;SDS011;38074;51.232;6.826;2023-03-23T07:51:28;1.77;;;0.50;;
52072;SDS011;38074;51.232;6.826;2023-03-23T07:58:44;1.70;;;0.30;;
52072;SDS011;38074;51.232;6.826;2023-03-23T08:06:00;1.57;;;0.40;;
52072;SDS011;38074;51.232;6.826;2023-03-23T08:13:16;2.10;;;0.47;;
52072;SDS011;38074;51.232;6.826;2023-03-23T08:20:33;1.50;;;0.40;;
52072;SDS011;38074;51.232;6.826;2023-03-23T08:27:48;1.00;;;0.40;;
52072;SDS011;38074;51.232;6.826;2023-03-23T08:35:04;2.67;;;0.60;;
52072;SDS011;38074;51.232;6.826;2023-03-23T08:42:22;2.78;;;0.40;;
52072;SDS011;38074;51.232;6.826;2023-03-23T08:56:54;1.47;;;0.37;;
52072;SDS011;38074;51.232;6.826;2023-03-23T09:04:10;3.53;;;0.40;;
52072;SDS011;38074;51.232;6.826;2023-03-23T09:11:26;1.98;;;0.50;;
52072;SDS011;38074;51.232;6.826;2023-03-23T09:18:42;2.67;;;0.70;;
52072;SDS011;38074;51.232;6.826;2023-03-23T09:25:57;3.13;;;0.87;;
52072;SDS011;38074;51.232;6.826;2023-03-23T09:33:15;3.83;;;0.45;;
52072;SDS011;38074;51.232;6.826;2023-03-23T09:40:43;1.90;;;0.47;;
52072;SDS011;38074;51.232;6.826;2023-03-23T09:56:08;2.10;;;0.30;;
52072;SDS011;38074;51.232;6.826;2023-03-23T10:03:39;4.78;;;0.60;;
52072;SDS011;38074;51.232;6.826;2023-03-23T10:10:59;1.67;;;0.40;;
52072;SDS011;38074;51.232;6.826;2023-03-23T10:34:02;1.00;;;0.20;;
52072;SDS011;38074;51.232;6.826;2023-03-23T10:41:28;0.73;;;0.20;;
52072;SDS011;38074;51.232;6.826;2023-03-23T10:48:44;2.15;;;0.20;;
52072;SDS011;38074;51.232;6.826;2023-03-23T10:55:59;0.63;;;0.20;;
52072;SDS011;38074;51.232;6.826;2023-03-23T11:10:37;1.13;;;0.20;;
52072;SDS011;38074;51.232;6.826;2023-03-23T11:17:56;0.85;;;0.20;;
52072;SDS011;38074;51.232;6.826;2023-03-23T11:25:13;0.28;;;0.10;;
52072;SDS011;38074;51.232;6.826;2023-03-23T11:32:29;0.35;;;0.10;;
52072;SDS011;38074;51.232;6.826;2023-03-23T11:39:47;1.37;;;0.13;;
52072;SDS011;38074;51.232;6.826;2023-03-23T11:54:50;0.10;;;0.00;;
52072;SDS011;38074;51.232;6.826;2023-03-23T12:39:59;0.30;;;0.10;;
52072;SDS011;38074;51.232;6.826;2023-03-23T12:47:35;0.10;;;0.10;;
52072;SDS011;38074;51.232;6.826;2023-03-23T12:55:02;0.00;;;0.00;;
52072;SDS011;38074;51.232;6.826;2023-03-23T13:02:30;0.47;;;0.10;;
52072;SDS011;38074;51.232;6.826;2023-03-23T13:25:00;0.15;;;0.08;;
52072;SDS011;38074;51.232;6.826;2023-03-23T13:32:18;0.30;;;0.10;;
52072;SDS011;38074;51.232;6.826;2023-03-23T13:39:35;0.33;;;0.10;;
52072;SDS011;38074;51.232;6.826;2023-03-23T13:47:06;0.32;;;0.10;;
52072;SDS011;38074;51.232;6.826;2023-03-23T13:54:45;0.10;;;0.00;;
52072;SDS011;38074;51.232;6.826;2023-03-23T14:09:54;0.75;;;0.10;;
52072;SDS011;38074;51.232;6.826;2023-03-23T14:24:38;0.40;;;0.20;;
52072;SDS011;38074;51.232;6.826;2023-03-23T14:31:56;0.17;;;0.10;;
52072;SDS011;38074;51.232;6.826;2023-03-23T14:39:31;0.30;;;0.10;;
52072;SDS011;38074;51.232;6.826;2023-03-23T14:46:48;0.40;;;0.10;;
52072;SDS011;38074;51.232;6.826;2023-03-23T14:54:07;0.10;;;0.10;;
52072;SDS011;38074;51.232;6.826;2023-03-23T15:01:27;0.28;;;0.10;;
52072;SDS011;38074;51.232;6.826;2023-03-23T15:08:45;0.13;;;0.10;;
52072;SDS011;38074;51.232;6.826;2023-03-23T15:16:03;0.20;;;0.10;;
52072;SDS011;38074;51.232;6.826;2023-03-23T15:23:27;0.20;;;0.10;;
52072;SDS011;38074;51.232;6.826;2023-03-23T15:30:51;0.17;;;0.10;;
52072;SDS011;38074;51.232;6.826;2023-03-23T15:38:19;0.25;;;0.10;;
52072;SDS011;38074;51.232;6.826;2023-03-23T15:45:50;0.32;;;0.10;;
52072;SDS011;38074;51.232;6.826;2023-03-23T16:00:43;0.08;;;0.08;;
52072;SDS011;38074;51.232;6.826;2023-03-23T16:08:00;0.13;;;0.10;;
52072;SDS011;38074;51.232;6.826;2023-03-23T16:15:16;0.10;;;0.10;;
52072;SDS011;38074;51.232;6.826;2023-03-23T16:22:31;0.20;;;0.05;;
52072;SDS011;38074;51.232;6.826;2023-03-23T16:29:47;0.20;;;0.10;;
52072;SDS011;38074;51.232;6.826;2023-03-23T16:37:02;0.10;;;0.03;;
52072;SDS011;38074;51.232;6.826;2023-03-23T16:44:18;0.10;;;0.08;;
52072;SDS011;38074;51.232;6.826;2023-03-23T16:51:33;0.30;;;0.10;;
52072;SDS011;38074;51.232;6.826;2023-03-23T16:58:49;0.40;;;0.10;;
52072;SDS011;38074;51.232;6.826;2023-03-23T17:06:04;2.07;;;0.27;;
52072;SDS011;38074;51.232;6.826;2023-03-23T17:13:20;5.10;;;0.60;;
52072;SDS011;38074;51.232;6.826;2023-03-23T17:20:36;4.68;;;0.50;;
52072;SDS011;38074;51.232;6.826;2023-03-23T17:27:52;3.15;;;0.40;;
52072;SDS011;38074;51.232;6.826;2023-03-23T17:35:08;1.60;;;0.35;;
52072;SDS011;38074;51.232;6.826;2023-03-23T17:42:24;1.70;;;0.20;;
52072;SDS011;38074;51.232;6.826;2023-03-23T17:49:39;7.55;;;0.68;;
52072;SDS011;38074;51.232;6.826;2023-03-23T17:56:55;3.37;;;0.30;;
52072;SDS011;38074;51.232;6.826;2023-03-23T18:04:17;6.65;;;0.60;;
52072;SDS011;38074;51.232;6.826;2023-03-23T18:11:33;6.10;;;0.45;;
52072;SDS011;38074;51.232;6.826;2023-03-23T18:18:49;8.75;;;0.60;;
52072;SDS011;38074;51.232;6.826;2023-03-23T18:26:05;5.90;;;0.87;;
52072;SDS011;38074;51.232;6.826;2023-03-23T18:33:22;7.22;;;1.08;;
52072;SDS011;38074;51.232;6.826;2023-03-23T18:40:42;9.57;;;0.80;;
52072;SDS011;38074;51.232;6.826;2023-03-23T18:47:59;9.07;;;0.98;;
52072;SDS011;38074;51.232;6.826;2023-03-23T18:55:14;4.13;;;1.23;;
52072;SDS011;38074;51.232;6.826;2023-03-23T19:02:30;7.70;;;1.37;;
52072;SDS011;38074;51.232;6.826;2023-03-23T19:09:46;3.88;;;0.73;;
52072;SDS011;38074;51.232;6.826;2023-03-23T19:17:02;13.07;;;1.58;;
52072;SDS011;38074;51.232;6.826;2023-03-23T19:24:17;12.35;;;1.65;;
52072;SDS011;38074;51.232;6.826;2023-03-23T19:31:33;21.55;;;2.10;;
52072;SDS011;38074;51.232;6.826;2023-03-23T19:38:49;9.47;;;1.10;;
52072;SDS011;38074;51.232;6.826;2023-03-23T19:46:06;18.23;;;1.98;;
52072;SDS011;38074;51.232;6.826;2023-03-23T19:53:23;11.68;;;1.73;;
52072;SDS011;38074;51.232;6.826;2023-03-23T20:00:38;12.25;;;1.10;;
52072;SDS011;38074;51.232;6.826;2023-03-23T20:07:54;10.23;;;1.23;;
52072;SDS011;38074;51.232;6.826;2023-03-23T20:15:10;8.50;;;1.33;;
52072;SDS011;38074;51.232;6.826;2023-03-23T20:22:26;7.07;;;1.20;;
52072;SDS011;38074;51.232;6.826;2023-03-23T20:29:42;6.13;;;0.80;;
52072;SDS011;38074;51.232;6.826;2023-03-23T20:36:59;6.63;;;0.80;;
52072;SDS011;38074;51.232;6.826;2023-03-23T20:44:16;3.13;;;0.60;;
52072;SDS011;38074;51.232;6.826;2023-03-23T20:51:33;3.30;;;0.60;;
52072;SDS011;38074;51.232;6.826;2023-03-23T20:58:48;5.43;;;0.60;;
52072;SDS011;38074;51.232;6.826;2023-03-23T21:06:05;1.67;;;0.40;;
52072;SDS011;38074;51.232;6.826;2023-03-23T21:13:21;4.43;;;0.70;;
52072;SDS011;38074;51.232;6.826;2023-03-23T21:20:37;5.15;;;0.40;;
52072;SDS011;38074;51.232;6.826;2023-03-23T21:27:53;1.38;;;0.43;;
52072;SDS011;38074;51.232;6.826;2023-03-23T21:35:09;2.78;;;0.60;;
52072;SDS011;38074;51.232;6.826;2023-03-23T21:42:25;2.00;;;0.30;;
52072;SDS011;38074;51.232;6.826;2023-03-23T21:49:44;1.63;;;0.40;;
52072;SDS011;38074;51.232;6.826;2023-03-23T21:56:59;1.85;;;0.30;;
52072;SDS011;38074;51.232;6.826;2023-03-23T22:04:15;1.38;;;0.40;;
52072;SDS011;38074;51.232;6.826;2023-03-23T22:11:31;1.50;;;0.35;;
52072;SDS011;38074;51.232;6.826;2023-03-23T22:18:48;1.17;;;0.32;;
52072;SDS011;38074;51.232;6.826;2023-03-23T22:26:05;1.23;;;0.30;;
52072;SDS011;38074;51.232;6.826;2023-03-23T22:33:21;2.00;;;0.35;;
52072;SDS011;38074;51.232;6.826;2023-03-23T22:40:37;1.73;;;0.30;;
52072;SDS011;38074;51.232;6.826;2023-03-23T22:47:52;1.13;;;0.20;;
52072;SDS011;38074;51.232;6.826;2023-03-23T22:55:08;3.15;;;0.65;;
52072;SDS011;38074;51.232;6.826;2023-03-23T23:02:24;1.30;;;0.28;;
52072;SDS011;38074;51.232;6.826;2023-03-23T23:09:43;1.40;;;0.28;;
52072;SDS011;38074;51.232;6.826;2023-03-23T23:16:59;0.95;;;0.20;;
52072;SDS011;38074;51.232;6.826;2023-03-23T23:24:15;1.60;;;0.25;;
52072;SDS011;38074;51.232;6.826;2023-03-23T23:31:31;1.20;;;0.20;;
52072;SDS011;38074;51.232;6.826;2023-03-23T23:38:47;2.03;;;0.23;;
52072;SDS011;38074;51.232;6.826;2023-03-23T23:46:03;2.85;;;0.30;;
52072;SDS011;38074;51.232;6.826;2023-03-23T23:53:19;1.60;;;0.30;;
